St. Petersburg Albert Whitted Airport

Current Flights

Departures
Number Departure To Airline
Arrivals
Number Arrival From Airline
Info
Name: St. Petersburg Albert Whitted Airport
Identifier:  SPG/KSPG
Local Time:  19. May 14:56
City
St. Petersburg
  United States

Flights per Day
4 flights
Distance: 430km (267mi)
Punctuality
84% (0 flights per day delayed)
Delay Average: 28 minutes
Current Weather
 27 C (Humidity: 69%)
  6kt (11km/h / 6mph) from 150°
  16km (10 mi.)
 
 METAR KSPG 191353Z 15006KT 10SM CLR 27/21 A3002 RMK AO2 SLP164 T02670211

Current Delays

Departures
N/A
Arrivals
N/A

Destinations

Top Destinations
Airport Flights
per week
Seats
per week
  Fort Myers (FMY) <1 - 0 0
  Fort Pierce (FPR) <1 - 0 0
  Fort Lauderdale (FLL) <1 - 0 0
  Sarasota (SRQ) <1 - 0 0
  Clemson (CEU) <1 - 0 0

Airlines & Planes

Top Airlines
Airline Flights
per Day
Seats
per Day
  Flybe Nordic 1 -
  Novair 1 -
  National Airlines 1 -
Jet Charter Inc ( Franklin Lakes Nj ) <1 -
Nordwind Airlines <1 -
  Nolinor Aviation <1 -
  Delta Air Lines <1 5
Top Plane Types
Manufacturer Model Flights Seats
Pilatus PC-12 1.2/day - 0
Cessna C172 1.1/day - 0
Piper PA-32R-301T Saratoga II 0.9/day - 0
Piper PA28-181 0.5/day - 0
Cessna C82S 0.2/day - 0